Recife Curado, Brazil

3:31 PM BRT on August 29, 2015 (GMT -0300)
Guararapes International | | Change Station
CLOSE
Current Station
Airport
Location: Recife,
Elevation: 30 ft
Nearby Weather Stations

Elev 30 ft 8.13 °S, 34.92 °W | Updated 31 minutes ago

Mostly Cloudy
Mostly Cloudy
79 °F
Feels Like 79 °F
N
13
Wind Variable Wind from SSE

Today
High -- | Low -- °F
--% Chance of Precip.
Yesterday
High -- | Low -- °F
Precip. -- in
5:22 AM 5:18 PM
Full, 100% visible
Pressure 30.01 in
Visibility 6.2 miles
Clouds Mostly Cloudy 2200 ft
Dew Point 73 °F
Humidity 83%
Rainfall 0.00 in
Snow Depth Not available.
UV 2 out of 12
Pollen Not available.
Air Quality Not available.
Flu Activity Not available.
METAR SBRF 291800Z 15011KT 9999 BKN022 26/23 Q1016
Pressure 30.01 in
Visibility 6.2 miles
Clouds Mostly Cloudy 2200 ft
Dew Point 73 °F
Humidity 83%
Rainfall 0.00 in
Snow Depth Not available.
UV 2 out of 12
Pollen Not available.
Air Quality Not available.
Flu Activity Not available.
METAR SBRF 291800Z 15011KT 9999 BKN022 26/23 Q1016

10-Day Weather Forecast

×

Almanac

Astronomy

Aug. 29, 2015 Rise Set
Actual Time
Civil Twilight
Nautical Twilight
Astronomical Twilight
Moon
Length of Visible Light
Length of Day
Tomorrow will be .
, % of the Moon is Illuminated

Today's Extremes

Country Highs Country Lows

Community

WunderPhotos

Upload Photos

1,850,761 photos uploaded!

WunderBlogs® & News

Nearby

Air Quality

  Air Quality AQ Index Pollutant
Not available.

Snow Depth

Station Depth Elevation

Earthquake Activity

City Distance Mag. Time & Date
Minimum magnitude displayed is 2.5.

Coastal Water Temperatures

Place Temperature

Stations

Nearby Weather Stations

Station Location Temp. Windchill Dew Point Humidity Wind Precip. Elev Updated Type